createdAt,value
2023-04-14T00:01:47.876Z,10.52
2023-04-14T00:04:17.362Z,10.63
2023-04-14T00:10:20.529Z,10.58
2023-04-14T00:12:58.366Z,10.73
2023-04-14T00:15:30.947Z,10.68
2023-04-14T00:18:00.283Z,10.65
2023-04-14T00:20:29.339Z,10.74
2023-04-14T00:22:58.501Z,10.73
2023-04-14T00:25:27.797Z,10.76
2023-04-14T00:31:04.750Z,10.74
2023-04-14T00:33:31.283Z,10.58
2023-04-14T00:36:00.265Z,10.55
2023-04-14T00:38:29.389Z,10.61
2023-04-14T00:41:02.738Z,10.71
2023-04-14T00:43:33.917Z,10.77
2023-04-14T00:46:02.567Z,10.77
2023-04-14T00:48:33.553Z,10.71
2023-04-14T00:51:10.374Z,10.83
2023-04-14T00:53:44.247Z,10.92
2023-04-14T00:56:14.404Z,10.91
2023-04-14T00:58:45.715Z,10.59
2023-04-14T01:01:20.888Z,10.86
2023-04-14T01:03:54.263Z,10.88
2023-04-14T01:06:26.506Z,10.93
2023-04-14T01:08:56.015Z,10.97
2023-04-14T01:11:36.794Z,11.08
2023-04-14T01:14:31.029Z,11.01
2023-04-14T01:17:05.689Z,10.98
2023-04-14T01:19:48.185Z,10.98
2023-04-14T01:29:04.218Z,10.91
2023-04-14T01:31:56.935Z,10.90
2023-04-14T01:34:32.225Z,10.94
2023-04-14T01:37:23.654Z,11.04
2023-04-14T01:39:54.903Z,10.96
2023-04-14T01:42:28.499Z,10.99
2023-04-14T01:45:03.624Z,10.39
2023-04-14T01:47:33.592Z,10.78
2023-04-14T01:50:05.594Z,10.83
2023-04-14T01:52:37.174Z,10.89
2023-04-14T01:55:10.324Z,10.66
2023-04-14T01:57:42.127Z,10.73
2023-04-14T02:00:19.543Z,10.74
2023-04-14T02:02:52.578Z,10.80
2023-04-14T02:05:25.667Z,10.85
2023-04-14T02:07:56.015Z,10.73
2023-04-14T02:10:30.725Z,10.68
2023-04-14T02:13:02.337Z,10.59
2023-04-14T02:15:34.335Z,10.55
2023-04-14T02:18:06.875Z,10.56
2023-04-14T02:20:41.851Z,10.59
2023-04-14T02:23:10.957Z,10.57
2023-04-14T02:25:42.719Z,10.65
2023-04-14T02:28:20.411Z,10.73
2023-04-14T02:30:56.772Z,10.66
2023-04-14T02:33:31.423Z,10.74
2023-04-14T02:36:10.783Z,10.72
2023-04-14T02:38:42.971Z,10.61
2023-04-14T02:41:23.913Z,10.71
2023-04-14T02:44:02.109Z,10.65
2023-04-14T02:46:37.061Z,10.61
2023-04-14T02:49:19.834Z,10.52
2023-04-14T02:51:55.720Z,10.64
2023-04-14T02:54:27.221Z,10.57
2023-04-14T02:56:57.759Z,10.60
2023-04-14T02:59:27.873Z,10.59
2023-04-14T03:02:00.240Z,10.62
2023-04-14T03:04:32.929Z,10.64
2023-04-14T03:07:05.920Z,10.59
2023-04-14T03:09:35.264Z,10.62
2023-04-14T03:19:14.903Z,10.37
2023-04-14T03:21:48.079Z,10.22
2023-04-14T03:24:25.944Z,10.26
2023-04-14T03:29:55.512Z,10.11
2023-04-14T03:32:31.788Z,10.31
2023-04-14T03:35:06.340Z,10.21
2023-04-14T03:37:40.925Z,10.34
2023-04-14T03:40:16.849Z,10.28
2023-04-14T03:42:48.651Z,10.20
2023-04-14T03:45:19.828Z,10.26
2023-04-14T03:47:49.231Z,10.34
2023-04-14T03:50:23.960Z,10.34
2023-04-14T03:53:11.285Z,10.31
2023-04-14T03:59:15.724Z,10.35
2023-04-14T04:01:48.265Z,10.48
2023-04-14T04:04:18.784Z,10.47
2023-04-14T04:06:52.865Z,10.19
2023-04-14T04:09:25.184Z,10.34
2023-04-14T04:11:58.361Z,10.22
2023-04-14T04:14:31.591Z,10.19
2023-04-14T04:17:03.994Z,10.17
2023-04-14T04:19:33.731Z,10.24
2023-04-14T04:22:04.532Z,10.23
2023-04-14T04:24:36.584Z,10.33
2023-04-14T04:27:20.355Z,10.43
2023-04-14T04:29:47.087Z,10.41
2023-04-14T04:32:14.264Z,10.49
2023-04-14T04:34:45.071Z,10.59
2023-04-14T04:37:14.918Z,10.65
2023-04-14T04:39:43.980Z,10.54
2023-04-14T04:42:16.621Z,10.57
2023-04-14T04:47:43.305Z,10.41
2023-04-14T04:59:22.991Z,10.92
2023-04-14T05:01:51.835Z,11.05
2023-04-14T05:04:21.718Z,11.18
2023-04-14T05:06:50.763Z,11.10
2023-04-14T05:09:19.584Z,11.23
2023-04-14T05:11:48.504Z,11.39
2023-04-14T05:14:17.349Z,11.43
2023-04-14T05:16:48.067Z,11.47
2023-04-14T05:19:16.824Z,11.52
2023-04-14T05:21:45.700Z,11.23
2023-04-14T05:24:14.764Z,11.19
2023-04-14T05:29:21.445Z,11.46
2023-04-14T05:31:47.228Z,11.68
2023-04-14T05:34:16.020Z,11.98
2023-04-14T05:36:47.424Z,12.26
2023-04-14T05:39:16.173Z,12.44
2023-04-14T05:41:45.004Z,12.51
2023-04-14T05:44:13.789Z,12.66
2023-04-14T05:46:42.590Z,12.74
2023-04-14T05:49:13.650Z,13.08
2023-04-14T05:51:42.428Z,13.01
2023-04-14T05:54:14.588Z,13.14
2023-04-14T05:56:43.475Z,13.28
2023-04-14T05:59:12.296Z,13.49
2023-04-14T06:01:53.610Z,13.46
2023-04-14T06:04:25.105Z,13.50
2023-04-14T06:06:54.321Z,13.77
2023-04-14T06:09:23.137Z,13.99
2023-04-14T06:11:56.976Z,13.92
2023-04-14T06:14:27.388Z,13.85
2023-04-14T06:16:56.817Z,13.78
2023-04-14T06:22:31.389Z,14.16
2023-04-14T06:25:01.243Z,14.29
2023-04-14T06:27:30.250Z,14.36
2023-04-14T06:30:12.166Z,14.49
2023-04-14T06:32:51.649Z,14.30
2023-04-14T06:35:33.037Z,14.39
2023-04-14T06:38:28.998Z,14.62
2023-04-14T06:40:47.439Z,14.45
2023-04-14T06:43:19.851Z,14.83
2023-04-14T06:45:53.299Z,14.85
2023-04-14T06:48:31.138Z,14.96
2023-04-14T06:51:00.164Z,14.94
2023-04-14T06:53:32.089Z,15.00
2023-04-14T06:56:08.252Z,14.83
2023-04-14T06:58:38.490Z,14.80
2023-04-14T07:01:07.346Z,14.47
2023-04-14T07:03:37.688Z,14.26
2023-04-14T07:06:16.949Z,14.64
2023-04-14T07:08:46.915Z,14.95
2023-04-14T07:11:15.836Z,15.26
2023-04-14T07:13:44.619Z,15.64
2023-04-14T07:16:13.351Z,15.56
2023-04-14T07:18:42.052Z,15.90
2023-04-14T07:21:10.994Z,16.14
2023-04-14T07:23:40.265Z,16.82
2023-04-14T07:26:13.260Z,16.77
2023-04-14T07:28:42.271Z,16.64
2023-04-14T07:31:18.264Z,17.09
2023-04-14T07:33:46.802Z,17.29
2023-04-14T07:36:17.449Z,17.00
2023-04-14T07:38:49.637Z,16.89
2023-04-14T07:41:19.616Z,17.37
2023-04-14T07:43:48.769Z,17.41
2023-04-14T07:46:25.328Z,17.37
2023-04-14T07:48:51.694Z,17.17
2023-04-14T07:51:43.181Z,17.27
2023-04-14T07:57:18.878Z,17.05
2023-04-14T07:59:43.333Z,17.60
2023-04-14T08:02:15.166Z,17.73
2023-04-14T08:04:43.365Z,17.61
2023-04-14T08:07:15.709Z,17.69
2023-04-14T08:09:44.581Z,17.87
2023-04-14T08:12:13.405Z,17.88
2023-04-14T08:14:42.235Z,17.72
2023-04-14T08:17:11.046Z,18.15
2023-04-14T08:19:39.852Z,18.12
2023-04-14T08:22:08.627Z,18.33
2023-04-14T08:24:37.921Z,18.31
2023-04-14T08:27:06.860Z,18.49
2023-04-14T08:29:37.653Z,18.67
2023-04-14T08:32:08.747Z,18.82
2023-04-14T08:34:39.048Z,18.92
2023-04-14T08:37:09.310Z,18.94
2023-04-14T08:39:41.148Z,19.12
2023-04-14T08:42:10.440Z,19.01
2023-04-14T08:44:40.889Z,19.35
2023-04-14T08:47:10.528Z,19.54
2023-04-14T08:49:48.104Z,19.78
2023-04-14T08:52:18.810Z,19.98
2023-04-14T08:54:52.892Z,20.48
2023-04-14T08:57:23.626Z,20.96
2023-04-14T08:59:52.895Z,20.98
2023-04-14T09:02:25.516Z,20.49
2023-04-14T09:04:55.059Z,20.66
2023-04-14T09:07:25.390Z,20.20
2023-04-14T09:09:54.434Z,20.62
2023-04-14T09:12:26.189Z,20.55
2023-04-14T09:14:56.409Z,20.81
2023-04-14T09:17:31.932Z,20.79
2023-04-14T09:20:38.989Z,20.72
2023-04-14T09:22:32.971Z,21.00
2023-04-14T09:25:08.198Z,21.56
2023-04-14T09:27:37.086Z,21.46
2023-04-14T09:30:06.682Z,21.40
2023-04-14T09:32:36.405Z,21.89
2023-04-14T09:35:06.447Z,22.42
2023-04-14T09:37:49.058Z,21.91
2023-04-14T09:40:33.702Z,21.96
2023-04-14T09:43:04.126Z,21.30
2023-04-14T09:45:45.720Z,21.57
2023-04-14T09:48:14.751Z,22.28
2023-04-14T09:51:06.230Z,21.68
2023-04-14T09:53:37.401Z,21.91
2023-04-14T09:56:08.121Z,22.63
2023-04-14T09:58:42.205Z,21.89
2023-04-14T10:01:19.441Z,21.81
2023-04-14T10:42:35.129Z,19.26
2023-04-14T10:45:41.984Z,18.68
2023-04-14T11:01:33.095Z,15.22
2023-04-14T11:34:09.477Z,13.15
2023-04-14T11:36:40.358Z,13.47
2023-04-14T11:39:16.270Z,12.95
2023-04-14T11:41:52.332Z,12.56
2023-04-14T11:44:22.260Z,12.29
2023-04-14T11:47:01.571Z,12.26
2023-04-14T12:12:11.054Z,11.41
2023-04-14T12:42:19.388Z,10.17
2023-04-14T12:49:11.754Z,10.25
2023-04-14T13:07:53.333Z,10.44
2023-04-14T13:23:03.871Z,11.10
2023-04-14T13:25:41.836Z,11.31
2023-04-14T13:28:20.929Z,10.93
2023-04-14T14:06:20.567Z,12.03
2023-04-14T14:09:05.649Z,11.64
2023-04-14T14:11:53.297Z,11.77
2023-04-14T14:14:22.917Z,11.87
2023-04-14T14:16:52.348Z,12.28
2023-04-14T14:19:24.363Z,12.55
2023-04-14T14:21:56.736Z,12.57
2023-04-14T14:24:25.756Z,12.86
2023-04-14T14:26:57.205Z,13.40
2023-04-14T14:29:26.119Z,13.63
2023-04-14T14:31:57.818Z,13.70
2023-04-14T14:34:31.185Z,13.72
2023-04-14T14:37:04.812Z,13.66
2023-04-14T15:05:41.378Z,13.86
2023-04-14T15:08:13.914Z,13.60
2023-04-14T15:10:42.830Z,14.52
2023-04-14T15:13:14.562Z,15.57
2023-04-14T15:18:38.794Z,17.90
2023-04-14T15:21:16.251Z,16.90
2023-04-14T15:23:45.850Z,15.73
2023-04-14T15:26:29.142Z,14.80
2023-04-14T15:29:00.095Z,14.37
2023-04-14T15:31:29.464Z,14.42
2023-04-14T15:34:04.406Z,14.81
2023-04-14T15:36:33.826Z,15.50
2023-04-14T15:41:36.720Z,17.02
2023-04-14T15:51:57.267Z,17.76
2023-04-14T15:54:27.597Z,18.71
2023-04-14T15:56:57.922Z,18.76
2023-04-14T15:59:28.914Z,19.29
2023-04-14T16:01:58.142Z,19.60
2023-04-14T16:04:27.129Z,19.94
2023-04-14T16:06:58.125Z,19.65
2023-04-14T16:09:28.561Z,19.44
2023-04-14T16:11:59.982Z,17.86
2023-04-14T16:14:33.936Z,17.22
2023-04-14T16:17:03.004Z,16.05
2023-04-14T16:19:32.023Z,15.93
2023-04-14T16:22:04.350Z,15.06
2023-04-14T16:24:33.570Z,14.13
2023-04-14T16:27:02.694Z,13.66
2023-04-14T16:29:34.593Z,13.33
2023-04-14T16:32:05.244Z,13.07
2023-04-14T16:34:44.890Z,12.87
2023-04-14T16:37:21.685Z,12.80
2023-04-14T16:40:02.840Z,12.55
2023-04-14T16:42:47.742Z,12.45
2023-04-14T16:45:19.215Z,12.23
2023-04-14T16:47:51.976Z,12.21
2023-04-14T16:50:23.369Z,12.03
2023-04-14T16:52:56.189Z,11.91
2023-04-14T16:55:27.972Z,11.96
2023-04-14T16:58:00.854Z,11.91
2023-04-14T17:00:31.854Z,11.66
2023-04-14T17:03:06.827Z,11.89
2023-04-14T17:05:36.055Z,11.83
2023-04-14T17:08:08.147Z,11.64
2023-04-14T17:13:53.643Z,11.47
2023-04-14T17:16:49.929Z,11.20
2023-04-14T17:19:17.562Z,11.22
2023-04-14T17:22:01.527Z,10.97
2023-04-14T17:24:31.316Z,10.77
2023-04-14T17:27:05.608Z,10.62
2023-04-14T17:29:40.022Z,10.59
2023-04-14T17:32:35.160Z,10.60
2023-04-14T17:35:16.001Z,10.43
2023-04-14T17:37:46.950Z,10.72
2023-04-14T17:40:24.015Z,10.62
2023-04-14T17:42:53.113Z,10.42
2023-04-14T17:45:23.385Z,10.35
2023-04-14T17:47:57.000Z,10.27
2023-04-14T17:50:28.442Z,10.28
2023-04-14T17:52:58.272Z,10.16
2023-04-14T17:55:33.305Z,10.19
2023-04-14T17:58:02.285Z,10.26
2023-04-14T18:00:31.287Z,10.23
2023-04-14T18:03:00.105Z,10.20
2023-04-14T18:35:26.607Z,9.53
2023-04-14T18:47:37.020Z,10.12
2023-04-14T18:50:06.668Z,9.81
2023-04-14T18:52:36.068Z,9.57
2023-04-14T18:58:43.537Z,9.32
2023-04-14T19:01:12.566Z,9.51
2023-04-14T19:03:41.843Z,9.45
2023-04-14T19:06:11.064Z,9.27
2023-04-14T19:08:44.322Z,9.15
2023-04-14T19:11:12.990Z,9.11
2023-04-14T19:13:42.598Z,9.08
2023-04-14T19:16:15.162Z,9.10
2023-04-14T19:18:44.903Z,9.05
2023-04-14T19:24:42.873Z,9.07
2023-04-14T19:27:12.006Z,8.91
2023-04-14T19:29:42.726Z,8.87
2023-04-14T19:32:11.660Z,8.85
2023-04-14T19:34:40.727Z,8.97
2023-04-14T19:37:11.418Z,8.81
2023-04-14T19:39:43.687Z,8.54
2023-04-14T19:42:14.196Z,8.52
2023-04-14T19:44:51.498Z,8.55
2023-04-14T19:47:28.918Z,8.53
2023-04-14T19:50:06.349Z,8.60
2023-04-14T19:52:47.176Z,8.52
2023-04-14T19:55:16.350Z,8.69
2023-04-14T19:57:45.630Z,8.70
2023-04-14T20:00:16.055Z,8.65
2023-04-14T20:02:45.085Z,8.70
2023-04-14T20:05:15.526Z,8.62
2023-04-14T20:07:44.591Z,8.55
2023-04-14T20:10:13.955Z,8.45
2023-04-14T20:12:47.207Z,8.56
2023-04-14T20:15:16.317Z,8.59
2023-04-14T20:17:45.894Z,8.49
2023-04-14T20:20:19.378Z,8.37
2023-04-14T20:22:51.016Z,8.36
2023-04-14T20:25:26.580Z,8.34
2023-04-14T20:27:59.818Z,8.35
2023-04-14T20:30:29.710Z,8.27
2023-04-14T20:33:03.827Z,8.34
2023-04-14T20:35:52.680Z,8.45
2023-04-14T20:38:20.861Z,8.47
2023-04-14T20:40:52.704Z,8.28
2023-04-14T20:43:39.202Z,8.32
2023-04-14T20:46:08.214Z,8.30
2023-04-14T20:48:37.176Z,8.22
2023-04-14T20:51:10.474Z,8.25
2023-04-14T20:53:39.133Z,8.14
2023-04-14T20:56:08.014Z,8.11
2023-04-14T20:58:37.240Z,8.07
2023-04-14T21:01:06.596Z,8.25
2023-04-14T21:03:37.191Z,8.27
2023-04-14T21:06:07.083Z,8.36
2023-04-14T21:08:37.715Z,8.45
2023-04-14T21:11:40.195Z,8.43
2023-04-14T21:15:38.630Z,8.49
2023-04-14T21:16:32.625Z,8.59
2023-04-14T21:19:04.321Z,8.58
2023-04-14T21:21:34.030Z,8.23
2023-04-14T21:24:07.225Z,8.18
2023-04-14T21:26:36.290Z,8.07
2023-04-14T21:29:06.186Z,8.11
2023-04-14T21:31:35.048Z,8.07
2023-04-14T21:34:14.565Z,7.96
2023-04-14T21:36:39.905Z,8.14
2023-04-14T21:39:09.960Z,8.16
2023-04-14T21:41:40.166Z,8.22
2023-04-14T21:44:10.858Z,8.12
2023-04-14T21:46:39.760Z,8.19
2023-04-14T21:49:08.412Z,8.19
2023-04-14T21:51:37.492Z,8.25
2023-04-14T21:54:06.173Z,8.38
2023-04-14T21:56:34.888Z,8.47
2023-04-14T21:59:03.836Z,8.50
2023-04-14T22:01:33.464Z,8.56
2023-04-14T22:04:02.924Z,8.57
2023-04-14T22:06:31.694Z,8.61
2023-04-14T22:09:00.706Z,8.75
2023-04-14T22:11:31.126Z,8.77
2023-04-14T22:13:59.978Z,8.91
2023-04-14T22:16:33.428Z,8.98
2023-04-14T22:19:03.811Z,8.95
2023-04-14T22:21:33.699Z,8.82
2023-04-14T22:24:04.385Z,8.84
2023-04-14T22:26:33.324Z,8.75
2023-04-14T22:29:04.937Z,8.84
2023-04-14T22:31:33.965Z,8.94
2023-04-14T22:34:02.683Z,8.89
2023-04-14T22:36:31.866Z,8.91
2023-04-14T22:39:01.010Z,8.96
2023-04-14T22:41:30.238Z,8.96
2023-04-14T22:43:59.043Z,8.96
2023-04-14T22:46:27.821Z,9.08
2023-04-14T22:48:56.987Z,9.05
2023-04-14T22:51:26.389Z,8.84
2023-04-14T22:53:59.473Z,8.85
2023-04-14T22:56:29.567Z,8.63
2023-04-14T22:59:02.610Z,8.53
2023-04-14T23:01:31.858Z,8.48
2023-04-14T23:04:03.070Z,8.62
2023-04-14T23:06:32.928Z,8.56
2023-04-14T23:09:02.221Z,8.48
2023-04-14T23:11:31.370Z,8.37
2023-04-14T23:14:01.935Z,8.46
2023-04-14T23:16:31.130Z,8.30
2023-04-14T23:19:01.703Z,8.35
2023-04-14T23:21:32.141Z,8.36
2023-04-14T23:24:01.209Z,8.32
2023-04-14T23:26:31.244Z,8.30
2023-04-14T23:29:05.888Z,8.29
2023-04-14T23:31:46.653Z,8.26
2023-04-14T23:34:15.832Z,8.16
2023-04-14T23:37:00.743Z,7.98
2023-04-14T23:39:30.918Z,7.92
2023-04-14T23:42:00.945Z,7.82
2023-04-14T23:44:30.206Z,7.64
2023-04-14T23:46:59.471Z,7.63
2023-04-14T23:49:34.285Z,7.60
2023-04-14T23:51:59.214Z,7.65
2023-04-14T23:54:28.560Z,7.72
2023-04-14T23:56:57.605Z,7.74
2023-04-14T23:59:29.844Z,7.84
